Time,TemperatureF,DewpointF,PressureIn,WindDirection,WindDirectionDegrees,WindSpeedMPH,WindSpeedGustMPH,Humidity,HourlyPrecipIn,Conditions,Clouds,dailyrainin,SoftwareType,DateUTC
2013-09-27 00:02:00,25.0,23.0,-100.00,West,281,5.0,9.0,91,-99.99,,,-99.99,,2013-09-27 06:02:00,
2013-09-27 00:11:00,25.0,23.0,-100.00,West,281,5.0,9.0,91,-99.99,,,-99.99,,2013-09-27 06:11:00,
2013-09-27 00:42:00,25.0,23.0,-100.00,SE,143,2.0,4.0,93,-99.99,,,-99.99,,2013-09-27 06:42:00,
2013-09-27 01:43:00,25.0,23.0,-100.00,WSW,239,4.0,6.0,92,-99.99,,,-99.99,,2013-09-27 07:43:00,
2013-09-27 01:53:00,25.0,22.0,-100.00,SSE,168,1.0,3.0,90,-99.99,,,-99.99,,2013-09-27 07:53:00,
2013-09-27 02:11:00,25.0,22.0,-100.00,SW,234,2.0,3.0,90,-99.99,,,-99.99,,2013-09-27 08:11:00,
2013-09-27 02:22:00,24.0,22.0,-100.00,WNW,298,2.0,4.0,90,-99.99,,,-99.99,,2013-09-27 08:22:00,
2013-09-27 02:32:00,24.0,22.0,-100.00,WNW,298,2.0,4.0,90,-99.99,,,-99.99,,2013-09-27 08:32:00,
2013-09-27 02:42:00,24.0,22.0,-100.00,WNW,298,2.0,4.0,90,-99.99,,,-99.99,,2013-09-27 08:42:00,
2013-09-27 04:12:00,24.0,22.0,-100.00,NW,313,12.0,16.0,92,-99.99,,,-99.99,,2013-09-27 10:12:00,
2013-09-27 04:42:00,24.0,22.0,-100.00,WNW,300,10.0,14.0,92,-99.99,,,-99.99,,2013-09-27 10:42:00,
2013-09-27 04:52:00,24.0,22.0,-100.00,NW,305,9.0,12.0,91,-99.99,,,-99.99,,2013-09-27 10:52:00,
2013-09-27 05:12:00,24.0,22.0,-100.00,NW,310,10.0,12.0,91,-99.99,,,-99.99,,2013-09-27 11:12:00,
2013-09-27 05:22:00,24.0,22.0,-100.00,NW,307,10.0,14.0,90,-99.99,,,-99.99,,2013-09-27 11:22:00,
2013-09-27 05:42:00,24.0,22.0,-100.00,NW,313,10.0,14.0,91,-99.99,,,-99.99,,2013-09-27 11:42:00,
2013-09-27 05:52:00,24.0,22.0,-100.00,NW,318,10.0,12.0,91,-99.99,,,-99.99,,2013-09-27 11:52:00,
2013-09-27 06:02:00,24.0,22.0,-100.00,NW,318,10.0,12.0,91,-99.99,,,-99.99,,2013-09-27 12:02:00,
2013-09-27 06:42:00,23.0,21.0,-100.00,WNW,303,12.0,16.0,91,-99.99,,,-99.99,,2013-09-27 12:42:00,
2013-09-27 07:42:00,22.0,19.0,-100.00,WNW,303,13.0,18.0,89,-99.99,,,-99.99,,2013-09-27 13:42:00,
2013-09-27 08:42:00,22.0,20.0,-100.00,NW,306,10.0,14.0,90,-99.99,,,-99.99,,2013-09-27 14:42:00,
2013-09-27 09:44:00,22.0,19.0,-100.00,NW,309,13.0,19.0,89,-99.99,,,-99.99,,2013-09-27 15:44:00,
2013-09-27 09:54:00,22.0,19.0,-100.00,NW,307,16.0,21.0,88,-99.99,,,-99.99,,2013-09-27 15:54:00,
2013-09-27 10:04:00,22.0,19.0,-100.00,NW,307,16.0,21.0,88,-99.99,,,-99.99,,2013-09-27 16:04:00,
2013-09-27 10:44:00,23.0,19.0,-100.00,NW,319,11.0,17.0,86,-99.99,,,-99.99,,2013-09-27 16:44:00,
2013-09-27 10:53:00,24.0,20.0,-100.00,NW,326,11.0,16.0,85,-99.99,,,-99.99,,2013-09-27 16:53:00,
2013-09-27 11:03:00,24.0,20.0,-100.00,NW,326,11.0,16.0,85,-99.99,,,-99.99,,2013-09-27 17:03:00,
2013-09-27 11:43:00,26.0,22.0,-100.00,NW,317,8.0,15.0,83,-99.99,,,-99.99,,2013-09-27 17:43:00,
2013-09-27 12:43:00,30.0,23.0,-100.00,NW,317,8.0,16.0,76,-99.99,,,-99.99,,2013-09-27 18:43:00,
2013-09-27 13:42:00,29.0,23.0,-100.00,NW,314,7.0,13.0,78,-99.99,,,-99.99,,2013-09-27 19:42:00,
2013-09-27 13:53:00,30.0,24.0,-100.00,NW,311,7.0,17.0,78,-99.99,,,-99.99,,2013-09-27 19:53:00,
2013-09-27 14:00:00,27.0,23.0,-100.00,NW,320,15.0,27.0,83,-99.99,,,-99.99,,2013-09-27 20:00:00,
2013-09-27 14:03:00,30.0,24.0,-100.00,NW,311,7.0,17.0,78,-99.99,,,-99.99,,2013-09-27 20:03:00,
2013-09-27 14:22:00,26.0,22.0,-100.00,NW,318,13.0,26.0,85,-99.99,,,-99.99,,2013-09-27 20:22:00,
2013-09-27 14:43:00,27.0,23.0,-100.00,NW,320,15.0,27.0,83,-99.99,,,-99.99,,2013-09-27 20:43:00,
2013-09-27 14:52:00,27.0,23.0,-100.00,NW,320,15.0,27.0,83,-99.99,,,-99.99,,2013-09-27 20:52:00,
2013-09-27 15:44:00,25.0,22.0,-100.00,NW,321,17.0,28.0,88,-99.99,,,-99.99,,2013-09-27 21:44:00,
2013-09-27 15:54:00,25.0,21.0,-100.00,NW,317,16.0,27.0,86,-99.99,,,-99.99,,2013-09-27 21:54:00,
2013-09-27 16:04:00,25.0,21.0,-100.00,NW,317,16.0,27.0,86,-99.99,,,-99.99,,2013-09-27 22:04:00,
2013-09-27 16:43:00,24.0,21.0,-100.00,NW,323,9.0,19.0,88,-99.99,,,-99.99,,2013-09-27 22:43:00,
2013-09-27 17:12:00,24.0,20.0,-100.00,NNW,330,12.0,21.0,86,-99.99,,,-99.99,,2013-09-27 23:12:00,
2013-09-27 17:43:00,25.0,21.0,-100.00,NNW,329,9.0,23.0,84,-99.99,,,-99.99,,2013-09-27 23:43:00,
2013-09-27 18:22:00,24.0,21.0,-100.00,NNW,332,10.0,20.0,89,-99.99,,,-99.99,,2013-09-28 00:22:00,
2013-09-27 18:42:00,24.0,21.0,-100.00,NNW,332,11.0,22.0,87,-99.99,,,-99.99,,2013-09-28 00:42:00,
2013-09-27 18:52:00,24.0,21.0,-100.00,NW,326,7.0,24.0,88,-99.99,,,-99.99,,2013-09-28 00:52:00,
2013-09-27 19:12:00,23.0,20.0,-100.00,NW,321,8.0,18.0,89,-99.99,,,-99.99,,2013-09-28 01:12:00,
2013-09-27 19:21:00,23.0,20.0,-100.00,NW,321,8.0,18.0,89,-99.99,,,-99.99,,2013-09-28 01:21:00,
2013-09-27 19:32:00,23.0,20.0,-100.00,NW,321,8.0,18.0,89,-99.99,,,-99.99,,2013-09-28 01:32:00,
2013-09-27 20:12:00,23.0,21.0,-100.00,NW,305,8.0,17.0,92,-99.99,,,-99.99,,2013-09-28 02:12:00,
2013-09-27 21:45:00,24.0,22.0,-100.00,West,276,7.0,18.0,90,-99.99,,,-99.99,,2013-09-28 03:45:00,
2013-09-27 21:55:00,24.0,21.0,-100.00,West,272,9.0,23.0,89,-99.99,,,-99.99,,2013-09-28 03:55:00,
2013-09-27 22:13:00,24.0,21.0,-100.00,West,281,9.0,29.0,89,-99.99,,,-99.99,,2013-09-28 04:13:00,
2013-09-27 22:24:00,24.0,21.0,-100.00,West,280,10.0,29.0,89,-99.99,,,-99.99,,2013-09-28 04:24:00,
2013-09-27 22:43:00,24.0,22.0,-100.00,West,269,10.0,30.0,90,-99.99,,,-99.99,,2013-09-28 04:43:00,
2013-09-27 22:54:00,24.0,22.0,-100.00,West,275,8.0,22.0,91,-99.99,,,-99.99,,2013-09-28 04:54:00,
2013-09-27 23:12:00,24.0,22.0,-100.00,West,276,9.0,25.0,92,-99.99,,,-99.99,,2013-09-28 05:12:00,
2013-09-27 23:43:00,23.0,21.0,-100.00,West,277,7.0,24.0,93,-99.99,,,-99.99,,2013-09-28 05:43:00,
2013-09-27 23:53:00,24.0,22.0,-100.00,WNW,283,8.0,20.0,93,-99.99,,,-99.99,,2013-09-28 05:53:00,